Time;durP1;ratioP1;P1;durP2;ratioP2;P2;SDS_P1;SDS_P2;PMS_P1;PMS_P2;Temp;Humidity;BMP_temperature;BMP_pressure;BME280_temperature;BME280_humidity;BME280_pressure;Samples;Min_cycle;Max_cycle;Signal;HPM_P1;HPM_P2
2022/02/04 00:07:53;;;;;;;27.20;16.67;;;6.70;91.60;;;;;;5100346;28;20205;-70
2022/02/04 00:21:48;;;;;;;26.53;16.13;;;6.70;99.90;;;;;;5103119;28;20312;-70
2022/02/04 00:24:19;;;;;;;28.13;16.40;;;6.70;99.90;;;;;;5097121;28;20726;-70
2022/02/04 00:26:51;;;;;;;31.07;17.37;;;6.70;99.90;;;;;;5107205;28;20773;-69
2022/02/04 00:29:22;;;;;;;30.83;18.43;;;6.70;99.90;;;;;;5107085;28;20236;-70
2022/02/04 00:31:53;;;;;;;29.17;17.17;;;6.70;99.90;;;;;;5107051;28;20194;-70
2022/02/04 00:34:22;;;;;;;30.73;18.43;;;6.70;99.90;;;;;;5106900;28;20200;-70
2022/02/04 00:36:56;;;;;;;29.67;18.63;;;6.70;99.90;;;;;;5108602;28;20292;-70
2022/02/04 00:39:29;;;;;;;31.60;19.57;;;6.70;99.90;;;;;;5105692;28;20205;-70
2022/02/04 00:42:02;;;;;;;33.60;19.17;;;6.70;99.90;;;;;;5106620;28;20643;-70
2022/02/04 00:44:30;;;;;;;30.93;19.03;;;6.60;99.90;;;;;;5110627;28;20193;-70
2022/02/04 00:47:05;;;;;;;29.97;19.00;;;6.60;99.90;;;;;;5113793;28;20216;-69
2022/02/04 00:49:45;;;;;;;30.83;19.07;;;6.60;99.90;;;;;;5113521;28;21510;-70
2022/02/04 00:52:20;;;;;;;33.73;19.13;;;6.60;99.90;;;;;;5089981;28;20201;-70
2022/02/04 00:54:54;;;;;;;30.97;18.67;;;6.60;99.90;;;;;;5092436;28;20253;-70
2022/02/04 00:57:38;;;;;;;32.80;19.80;;;6.60;99.90;;;;;;5096934;28;20587;-70
2022/02/04 01:27:51;;;;;;;31.87;18.87;;;6.70;99.90;;;;;;5043433;28;20232;-70
2022/02/04 01:30:20;;;;;;;31.17;18.23;;;6.70;96.20;;;;;;5032643;28;20207;-69
2022/02/04 01:32:47;;;;;;;32.30;18.63;;;6.70;30.00;;;;;;5070427;28;20209;-70
2022/02/04 01:35:14;;;;;;;31.30;19.30;;;6.80;1.00;;;;;;5114611;28;20647;-70
2022/02/04 01:37:41;;;;;;;30.77;18.67;;;6.90;1.00;;;;;;5114307;28;20193;-70
2022/02/04 01:40:09;;;;;;;31.33;18.70;;;6.80;1.00;;;;;;5114367;28;20730;-70
2022/02/04 01:42:35;;;;;;;32.47;19.57;;;6.80;1.00;;;;;;5114742;28;20205;-70
2022/02/04 01:45:04;;;;;;;33.47;20.17;;;6.80;1.00;;;;;;5114111;28;20565;-70
2022/02/04 01:47:31;;;;;;;32.90;20.03;;;6.80;1.00;;;;;;5104922;28;20551;-70
2022/02/04 01:49:59;;;;;;;33.30;20.53;;;6.80;1.00;;;;;;5114617;28;20201;-70
2022/02/04 01:52:26;;;;;;;31.40;19.50;;;6.80;1.00;;;;;;5114437;28;20545;-69
2022/02/04 01:54:53;;;;;;;36.57;21.20;;;6.80;1.00;;;;;;5114036;28;20215;-70
2022/02/04 01:57:20;;;;;;;31.33;18.83;;;6.80;1.00;;;;;;5113298;28;20201;-69
2022/02/04 01:59:47;;;;;;;32.30;19.33;;;6.80;1.00;;;;;;5114042;28;20205;-69
2022/02/04 02:02:15;;;;;;;31.07;18.77;;;6.80;1.00;;;;;;5113483;28;20221;-69
2022/02/04 02:04:42;;;;;;;33.53;19.67;;;6.80;1.00;;;;;;5113675;28;20245;-69
2022/02/04 02:07:16;;;;;;;33.93;20.00;;;6.80;1.00;;;;;;5113608;28;20304;-69
2022/02/04 02:09:53;;;;;;;35.37;20.23;;;6.70;1.00;;;;;;5114169;28;20201;-70
2022/02/04 02:12:22;;;;;;;35.27;20.37;;;6.70;1.00;;;;;;5094851;28;20203;-70
2022/02/04 02:14:58;;;;;;;32.53;20.17;;;6.70;1.00;;;;;;5113759;28;20204;-70
2022/02/04 02:34:34;;;;;;;34.90;19.97;;;6.80;1.00;;;;;;5110848;28;20235;-71
2022/02/04 02:43:09;;;;;;;32.43;19.77;;;6.80;1.00;;;;;;5111864;28;20228;-76
2022/02/04 02:45:55;;;;;;;33.67;18.23;;;6.80;1.00;;;;;;5110780;28;20651;-76
2022/02/04 02:48:38;;;;;;;31.60;18.77;;;6.80;1.00;;;;;;5109520;28;20193;-76
2022/02/04 02:51:34;;;;;;;32.60;20.13;;;6.80;1.00;;;;;;5110341;28;20201;-76
2022/02/04 02:54:14;;;;;;;30.47;18.60;;;6.80;1.00;;;;;;5112476;28;20205;-75
2022/02/04 02:59:33;;;;;;;31.90;18.07;;;6.90;1.00;;;;;;5110681;28;20192;-75
2022/02/04 03:02:00;;;;;;;34.23;19.80;;;6.90;1.00;;;;;;5111160;28;20244;-75
2022/02/04 03:04:27;;;;;;;32.80;18.97;;;6.80;1.00;;;;;;5110435;28;20228;-75
2022/02/04 03:06:54;;;;;;;31.23;18.07;;;6.80;1.00;;;;;;5111451;28;20264;-75
2022/02/04 03:09:21;;;;;;;32.13;18.43;;;6.80;1.00;;;;;;5110189;28;20246;-75
2022/02/04 03:11:49;;;;;;;33.53;18.73;;;6.80;1.00;;;;;;5111445;28;20692;-76
2022/02/04 03:14:16;;;;;;;30.30;17.10;;;6.80;1.00;;;;;;5110184;28;20205;-75
2022/02/04 03:16:44;;;;;;;31.40;17.97;;;6.80;1.00;;;;;;5110196;28;20352;-75
2022/02/04 03:19:12;;;;;;;30.37;18.20;;;6.80;1.00;;;;;;5110722;28;20201;-75
2022/02/04 03:21:41;;;;;;;31.13;18.57;;;6.80;1.00;;;;;;5109178;28;20260;-75
2022/02/04 03:24:12;;;;;;;32.60;18.53;;;6.80;1.00;;;;;;5113043;27;20288;-75
2022/02/04 03:26:46;;;;;;;30.67;18.23;;;6.70;1.00;;;;;;5104755;28;20207;-76
2022/02/04 03:29:17;;;;;;;30.97;17.97;;;6.70;1.00;;;;;;5106960;28;20196;-76
2022/02/04 03:31:49;;;;;;;33.23;17.30;;;6.60;1.00;;;;;;5107226;28;20216;-75
2022/02/04 03:34:17;;;;;;;29.73;18.13;;;6.60;13.10;;;;;;5090591;28;20205;-76
2022/02/04 03:36:44;;;;;;;29.73;17.80;;;6.60;69.20;;;;;;5098153;28;20250;-76
2022/02/04 03:39:11;;;;;;;33.13;18.67;;;6.60;99.90;;;;;;5104298;28;20189;-76
2022/02/04 03:41:38;;;;;;;31.70;19.27;;;6.60;99.90;;;;;;5108714;28;20216;-76
2022/02/04 03:44:05;;;;;;;31.90;18.57;;;6.60;99.90;;;;;;5108591;28;20740;-75
2022/02/04 03:46:34;;;;;;;31.20;18.90;;;6.50;99.90;;;;;;5110192;28;20197;-76
2022/02/04 03:49:01;;;;;;;31.10;18.40;;;6.50;99.90;;;;;;5110840;28;20236;-76
2022/02/04 03:51:28;;;;;;;31.13;18.97;;;6.50;99.90;;;;;;5109181;28;20759;-76
2022/02/04 03:53:55;;;;;;;32.57;19.57;;;6.50;99.90;;;;;;5110718;28;20197;-76
2022/02/04 03:56:22;;;;;;;31.40;17.93;;;6.50;99.90;;;;;;5109490;28;20246;-76
2022/02/04 03:58:49;;;;;;;33.60;19.67;;;6.50;99.90;;;;;;5108079;28;20250;-76
2022/02/04 04:01:16;;;;;;;33.27;19.63;;;6.50;99.90;;;;;;5110356;28;20716;-75
2022/02/04 04:03:45;;;;;;;32.33;18.93;;;6.50;99.90;;;;;;5110603;28;20194;-75
2022/02/04 04:06:14;;;;;;;34.53;19.13;;;6.50;99.90;;;;;;5109382;28;20233;-75
2022/02/04 04:08:41;;;;;;;34.93;19.43;;;6.50;99.90;;;;;;5110611;28;20253;-76
2022/02/04 04:11:08;;;;;;;32.43;19.93;;;6.50;99.90;;;;;;5110885;28;20765;-75
2022/02/04 04:13:35;;;;;;;33.30;18.57;;;6.50;99.90;;;;;;5110741;28;20197;-75
2022/02/04 04:16:02;;;;;;;32.97;18.70;;;6.50;99.90;;;;;;5108175;28;20258;-76
2022/02/04 04:18:29;;;;;;;32.27;18.57;;;6.60;99.90;;;;;;5111064;28;20257;-76
2022/02/04 04:20:57;;;;;;;32.40;18.43;;;6.50;99.90;;;;;;5109633;28;20201;-76
2022/02/04 04:23:24;;;;;;;31.10;17.80;;;6.50;99.90;;;;;;5115203;28;20263;-76
2022/02/04 04:25:51;;;;;;;33.50;19.40;;;6.60;99.90;;;;;;5113974;28;20248;-73
2022/02/04 04:28:18;;;;;;;32.53;17.97;;;6.50;99.90;;;;;;5112146;28;20451;-74
2022/02/04 04:30:45;;;;;;;32.37;18.77;;;6.50;99.90;;;;;;5109863;28;20201;-74
2022/02/04 04:33:12;;;;;;;29.63;17.07;;;6.60;99.90;;;;;;5112654;28;20658;-74
2022/02/04 04:35:39;;;;;;;30.23;18.40;;;6.60;97.90;;;;;;5107638;28;20229;-74
2022/02/04 04:38:13;;;;;;;32.93;17.90;;;6.60;49.40;;;;;;5103970;28;20201;-74
2022/02/04 04:40:57;;;;;;;29.87;17.60;;;6.60;41.90;;;;;;5113599;28;20236;-74
2022/02/04 04:43:39;;;;;;;31.73;17.53;;;6.60;99.90;;;;;;5114751;28;20201;-74
2022/02/04 05:27:59;;;;;;;26.27;15.73;;;6.90;1.00;;;;;;5049666;28;20592;-74
2022/02/04 05:30:26;;;;;;;29.77;18.13;;;6.80;1.00;;;;;;5097503;28;20835;-74
2022/02/04 05:32:53;;;;;;;25.93;15.77;;;6.80;1.00;;;;;;5112631;28;20244;-74
2022/02/04 05:35:20;;;;;;;25.53;15.07;;;6.80;1.00;;;;;;5109521;28;20254;-74
2022/02/04 05:37:50;;;;;;;24.37;14.60;;;6.90;1.00;;;;;;5108991;28;20262;-74
2022/02/04 05:40:20;;;;;;;24.03;14.27;;;6.90;1.00;;;;;;5107303;28;20208;-74
2022/02/04 05:42:53;;;;;;;27.53;15.20;;;6.90;1.00;;;;;;5104877;28;20228;-74
2022/02/04 05:45:22;;;;;;;26.07;15.47;;;6.90;1.00;;;;;;5109543;28;20201;-74
2022/02/04 05:47:56;;;;;;;24.53;14.07;;;6.90;1.00;;;;;;5099588;28;20572;-74
2022/02/04 05:50:30;;;;;;;23.47;13.73;;;6.90;1.00;;;;;;5107022;28;20254;-74
2022/02/04 05:53:11;;;;;;;24.13;14.63;;;6.90;1.00;;;;;;5107436;28;20787;-74
2022/02/04 05:55:52;;;;;;;24.50;13.80;;;6.90;1.00;;;;;;5110596;28;20568;-74
2022/02/04 05:58:33;;;;;;;21.57;12.87;;;6.90;1.00;;;;;;5111093;28;20209;-74
2022/02/04 06:01:14;;;;;;;23.93;13.23;;;6.90;1.00;;;;;;5110459;28;20205;-74
2022/02/04 06:03:53;;;;;;;24.97;13.00;;;7.00;1.00;;;;;;5108350;28;20200;-74
2022/02/04 06:06:44;;;;;;;22.30;12.60;;;7.00;1.00;;;;;;5105533;28;20197;-74
2022/02/04 06:09:39;;;;;;;23.27;13.80;;;7.00;1.00;;;;;;5111099;28;20207;-74
2022/02/04 06:12:34;;;;;;;22.07;12.77;;;7.00;1.00;;;;;;5104575;28;20197;-74
2022/02/04 06:15:27;;;;;;;25.40;13.93;;;7.00;1.00;;;;;;5110969;28;20257;-74
2022/02/04 06:23:23;;;;;;;21.90;12.07;;;7.00;1.00;;;;;;5109378;28;20576;-74
2022/02/04 06:25:50;;;;;;;21.83;12.33;;;6.90;1.00;;;;;;5108882;28;20208;-74
2022/02/04 06:28:17;;;;;;;21.43;12.53;;;6.90;1.00;;;;;;5105726;28;20647;-74
2022/02/04 06:30:47;;;;;;;23.13;13.17;;;7.00;1.00;;;;;;5108645;28;20693;-74
2022/02/04 06:33:14;;;;;;;20.97;12.70;;;6.90;1.00;;;;;;5109054;28;20201;-74
2022/02/04 06:35:42;;;;;;;21.90;12.20;;;6.90;1.00;;;;;;5107871;28;20205;-74
2022/02/04 06:38:09;;;;;;;22.67;12.97;;;7.00;1.00;;;;;;5110290;28;20274;-74
2022/02/04 06:40:36;;;;;;;21.93;12.83;;;6.90;1.00;;;;;;5108045;28;20269;-74
2022/02/04 06:43:03;;;;;;;21.83;12.80;;;7.00;1.00;;;;;;5102052;28;20298;-74
2022/02/04 06:45:30;;;;;;;22.53;12.10;;;6.90;1.00;;;;;;5107960;28;20197;-74
2022/02/04 06:47:59;;;;;;;19.93;11.70;;;7.00;1.00;;;;;;5111062;28;20274;-74
2022/02/04 06:50:26;;;;;;;21.77;12.53;;;7.00;1.00;;;;;;5103491;28;20206;-74
2022/02/04 06:52:54;;;;;;;20.40;10.93;;;6.90;1.00;;;;;;5102589;28;20202;-74
2022/02/04 06:55:21;;;;;;;21.43;11.57;;;7.00;1.00;;;;;;5108439;28;20197;-74
2022/02/04 06:57:49;;;;;;;20.00;10.77;;;7.00;1.00;;;;;;5102842;28;20297;-74
2022/02/04 07:00:18;;;;;;;19.07;11.03;;;7.10;99.90;;;;;;5109098;28;20303;-74
2022/02/04 07:02:46;;;;;;;20.13;10.63;;;7.10;99.90;;;;;;5110394;28;20216;-74
2022/02/04 07:05:15;;;;;;;21.03;11.67;;;7.10;99.90;;;;;;5107652;28;20204;-74
2022/02/04 07:07:48;;;;;;;18.73;10.90;;;7.00;1.00;;;;;;5110118;27;20219;-74
2022/02/04 07:10:21;;;;;;;20.53;12.00;;;7.00;1.00;;;;;;5106959;28;20505;-74
2022/02/04 07:12:55;;;;;;;19.77;12.00;;;7.00;1.00;;;;;;5105087;28;20205;-73
2022/02/04 07:15:45;;;;;;;21.80;11.80;;;6.90;1.00;;;;;;5101573;28;20215;-74
2022/02/04 07:20:58;;;;;;;19.20;11.10;;;6.80;1.00;;;;;;5108997;28;20200;-73
2022/02/04 07:23:25;;;;;;;18.97;11.60;;;6.80;1.00;;;;;;5105844;28;20266;-74
2022/02/04 07:25:52;;;;;;;19.03;11.43;;;6.90;1.00;;;;;;5107374;28;20250;-74
2022/02/04 07:28:19;;;;;;;17.73;10.53;;;6.90;1.00;;;;;;5104809;28;20625;-74
2022/02/04 07:30:46;;;;;;;20.43;11.97;;;6.90;1.00;;;;;;5104407;28;20205;-74
2022/02/04 07:33:17;;;;;;;18.53;10.53;;;6.90;1.00;;;;;;5109396;28;20201;-74
2022/02/04 07:40:52;;;;;;;18.10;10.67;;;6.90;1.00;;;;;;5105440;28;20273;-74
2022/02/04 07:41:38;;;;;;;16.17;9.93;;;6.90;1.00;;;;;;5106120;28;20197;-74
2022/02/04 07:44:05;;;;;;;18.27;10.07;;;6.90;1.00;;;;;;5108414;28;20211;-74
2022/02/04 07:46:32;;;;;;;17.17;10.50;;;6.90;1.00;;;;;;5103821;28;20197;-74
2022/02/04 07:48:59;;;;;;;17.03;9.23;;;6.90;1.00;;;;;;5101287;28;20197;-74
2022/02/04 07:51:26;;;;;;;18.07;10.43;;;6.90;1.00;;;;;;5107030;28;20250;-74
2022/02/04 07:53:55;;;;;;;16.73;9.83;;;6.90;1.00;;;;;;5104237;28;20610;-70
2022/02/04 07:56:23;;;;;;;15.63;9.77;;;6.90;1.00;;;;;;5105827;28;20205;-70
2022/02/04 07:58:56;;;;;;;15.00;9.17;;;6.90;1.00;;;;;;5106349;28;20217;-70
2022/02/04 08:01:27;;;;;;;15.00;9.10;;;7.00;1.00;;;;;;5104836;28;20693;-70
2022/02/04 08:04:01;;;;;;;16.10;9.43;;;7.00;1.00;;;;;;5099465;28;20228;-70
2022/02/04 08:06:30;;;;;;;14.30;9.13;;;7.00;1.00;;;;;;5107980;28;20207;-70
2022/02/04 08:09:06;;;;;;;14.50;8.93;;;7.10;1.00;;;;;;5107319;28;20205;-70
2022/02/04 08:14:31;;;;;;;15.17;8.80;;;7.10;1.00;;;;;;5099031;28;20205;-70
2022/02/04 08:22:53;;;;;;;13.23;7.93;;;7.20;99.90;;;;;;5100888;28;20287;-70
2022/02/04 08:25:40;;;;;;;12.90;7.90;;;7.20;99.90;;;;;;5103950;28;20208;-70
2022/02/04 08:34:00;;;;;;;11.53;7.63;;;7.20;99.90;;;;;;5108723;28;20196;-70
2022/02/04 08:39:46;;;;;;;11.30;7.37;;;7.20;99.90;;;;;;5102858;28;20655;-71
2022/02/04 08:51:00;;;;;;;11.87;7.40;;;7.30;1.00;;;;;;5073471;28;20316;-70
2022/02/04 08:53:53;;;;;;;10.37;6.97;;;7.30;1.00;;;;;;5109058;28;20209;-70
2022/02/04 08:56:22;;;;;;;10.17;6.93;;;7.30;1.00;;;;;;5106801;28;20209;-70
2022/02/04 08:58:55;;;;;;;12.17;7.40;;;7.30;1.00;;;;;;5101342;28;20733;-70
2022/02/04 09:01:26;;;;;;;11.60;6.10;;;7.30;1.00;;;;;;5107404;28;20212;-71
2022/02/04 09:04:05;;;;;;;11.97;7.13;;;7.30;1.00;;;;;;5104721;28;20225;-71
2022/02/04 09:06:37;;;;;;;11.13;6.80;;;7.30;1.00;;;;;;5100977;28;20613;-70
2022/02/04 09:09:10;;;;;;;10.63;7.10;;;7.40;1.00;;;;;;5106240;28;20209;-70
2022/02/04 09:11:43;;;;;;;8.50;6.27;;;7.40;1.00;;;;;;5110589;28;20259;-70
2022/02/04 09:17:15;;;;;;;9.43;6.50;;;7.50;99.90;;;;;;5112759;28;20207;-71
2022/02/04 09:19:58;;;;;;;8.13;6.13;;;7.60;99.90;;;;;;5110604;28;20209;-71
2022/02/04 09:22:42;;;;;;;10.03;6.17;;;7.60;99.90;;;;;;5106671;28;20686;-70
2022/02/04 09:25:10;;;;;;;12.27;7.93;;;7.60;99.90;;;;;;5109918;28;20193;-70
2022/02/04 09:27:38;;;;;;;9.17;6.00;;;7.60;99.90;;;;;;5108411;28;20204;-70
2022/02/04 09:30:09;;;;;;;8.67;5.90;;;7.60;99.90;;;;;;5109804;28;20197;-70
2022/02/04 09:32:39;;;;;;;10.67;6.10;;;7.60;99.90;;;;;;5105673;28;20354;-70
2022/02/04 09:35:07;;;;;;;7.40;5.60;;;7.60;99.90;;;;;;5110223;28;20200;-70
2022/02/04 09:37:35;;;;;;;9.00;5.90;;;7.70;99.90;;;;;;5111388;28;20510;-70
2022/02/04 09:40:02;;;;;;;8.03;5.97;;;7.70;1.00;;;;;;5103942;28;20197;-71
2022/02/04 09:42:30;;;;;;;8.20;5.97;;;7.70;99.90;;;;;;5108133;28;20254;-70
2022/02/04 09:44:57;;;;;;;9.73;6.37;;;7.70;99.90;;;;;;5110852;28;20262;-70
2022/02/04 09:47:33;;;;;;;9.70;6.20;;;7.80;99.90;;;;;;5110755;28;20200;-70
2022/02/04 09:50:03;;;;;;;8.77;5.43;;;7.80;99.90;;;;;;5102237;28;20261;-71
2022/02/04 10:09:27;;;;;;;8.37;5.57;;;8.10;1.00;;;;;;5101797;28;20726;-70
2022/02/04 10:17:28;;;;;;;9.83;6.77;;;8.30;1.00;;;;;;5103817;28;20228;-71
2022/02/04 10:19:59;;;;;;;8.60;6.03;;;8.40;1.00;;;;;;5110508;28;20209;-70
2022/02/04 10:22:29;;;;;;;9.10;5.80;;;8.50;1.00;;;;;;5107436;28;20561;-70
2022/02/04 10:25:01;;;;;;;9.63;6.03;;;8.50;1.00;;;;;;5107669;28;20659;-70
2022/02/04 10:27:31;;;;;;;10.30;6.10;;;8.60;1.00;;;;;;5107539;28;20201;-70
2022/02/04 10:30:01;;;;;;;8.50;5.83;;;8.60;1.00;;;;;;5109798;28;20240;-70
2022/02/04 10:32:43;;;;;;;8.70;6.23;;;8.60;1.00;;;;;;5108153;28;20653;-70
2022/02/04 10:35:21;;;;;;;8.43;6.20;;;8.60;1.00;;;;;;5105914;28;20193;-71
2022/02/04 10:38:06;;;;;;;8.90;5.90;;;8.60;99.90;;;;;;5105824;28;20612;-70
2022/02/04 10:40:43;;;;;;;9.93;5.60;;;8.70;1.00;;;;;;5106226;28;20236;-70
2022/02/04 10:43:26;;;;;;;10.40;5.83;;;8.60;99.90;;;;;;5107829;28;20220;-70
2022/02/04 10:46:04;;;;;;;8.73;6.17;;;8.60;91.80;;;;;;5106528;28;20571;-70
2022/02/04 10:57:48;;;;;;;8.10;6.00;;;8.70;1.00;;;;;;5015149;28;20659;-70
2022/02/04 11:00:22;;;;;;;9.90;6.20;;;8.70;1.00;;;;;;5107914;28;20240;-70
2022/02/04 11:03:07;;;;;;;8.67;5.60;;;8.70;25.90;;;;;;5108559;28;20231;-70
2022/02/04 11:05:49;;;;;;;8.03;4.77;;;8.70;1.00;;;;;;5103725;28;20615;-70
2022/02/04 11:11:22;;;;;;;7.73;5.10;;;8.60;1.00;;;;;;5100602;28;20258;-70
2022/02/04 11:54:35;;;;;;;4.83;3.30;;;8.90;1.00;;;;;;5103030;28;20197;-74
2022/02/04 11:57:15;;;;;;;3.97;3.23;;;9.00;1.00;;;;;;5108232;28;20654;-74
2022/02/04 11:59:46;;;;;;;3.23;2.90;;;9.00;1.00;;;;;;5106242;28;20208;-73
2022/02/04 12:02:45;;;;;;;5.47;3.67;;;9.10;99.90;;;;;;5104399;28;20201;-74
2022/02/04 12:05:34;;;;;;;4.33;3.40;;;9.10;1.00;;;;;;5108331;28;20205;-74
2022/02/04 12:08:28;;;;;;;2.90;2.60;;;9.00;99.90;;;;;;5106880;28;20197;-74
2022/02/04 12:10:58;;;;;;;3.93;3.00;;;8.90;1.00;;;;;;5107832;28;20201;-73
2022/02/04 12:13:26;;;;;;;5.37;2.77;;;8.90;1.00;;;;;;5104203;28;20567;-74
2022/02/04 12:16:04;;;;;;;4.27;2.83;;;8.80;1.00;;;;;;5105625;28;20557;-73
2022/02/04 12:19:06;;;;;;;3.13;2.83;;;8.90;1.00;;;;;;5106389;28;20243;-74
2022/02/04 12:21:50;;;;;;;3.00;2.70;;;9.00;99.90;;;;;;5104540;28;20209;-74
2022/02/04 12:24:41;;;;;;;2.80;2.60;;;9.00;99.90;;;;;;5108387;28;20594;-73
2022/02/04 12:27:29;;;;;;;3.90;3.00;;;9.10;1.00;;;;;;5105528;28;20246;-73
2022/02/04 12:29:58;;;;;;;3.20;2.63;;;9.20;99.90;;;;;;5107883;28;20206;-74
2022/02/04 12:32:27;;;;;;;3.73;2.70;;;9.30;1.00;;;;;;5107703;28;20486;-74
2022/02/04 12:34:54;;;;;;;3.07;2.40;;;9.60;99.90;;;;;;5107831;28;20266;-73
2022/02/04 12:37:21;;;;;;;3.30;2.53;;;9.40;32.80;;;;;;5102984;28;20205;-74
2022/02/04 12:39:49;;;;;;;2.87;2.20;;;9.60;34.70;;;;;;5101755;28;20727;-73
2022/02/04 12:42:19;;;;;;;2.10;1.90;;;11.10;1.00;;;;;;5111479;28;20643;-74
2022/02/04 12:44:46;;;;;;;2.57;1.60;;;11.20;1.00;;;;;;5104925;28;20221;-74
2022/02/04 12:47:15;;;;;;;1.97;1.63;;;11.00;99.90;;;;;;5112311;28;20250;-74
2022/02/04 12:49:53;;;;;;;1.57;1.47;;;11.80;1.00;;;;;;5108831;28;20229;-74
2022/02/04 12:52:25;;;;;;;3.90;1.77;;;12.10;99.90;;;;;;5109860;28;20254;-74
2022/02/04 12:54:58;;;;;;;3.73;1.73;;;11.70;99.90;;;;;;5103105;28;20495;-74
2022/02/04 12:57:56;;;;;;;1.57;1.47;;;11.50;99.90;;;;;;5102304;28;20213;-73
2022/02/04 13:01:54;;;;;;;1.73;1.60;;;11.50;1.00;;;;;;5108647;28;20216;-73
2022/02/04 13:03:15;;;;;;;3.27;1.93;;;10.90;1.00;;;;;;5107422;28;20643;-74
2022/02/04 13:08:44;;;;;;;0.90;0.90;;;10.40;99.90;;;;;;5112486;28;20468;-74
2022/02/04 13:11:13;;;;;;;0.97;0.97;;;10.00;99.90;;;;;;5108785;28;20303;-73
2022/02/04 13:13:47;;;;;;;0.90;0.67;;;9.80;99.90;;;;;;5113027;28;20592;-73
2022/02/04 13:16:15;;;;;;;1.07;0.97;;;9.60;96.20;;;;;;5112943;28;20656;-73
2022/02/04 13:18:42;;;;;;;1.33;0.90;;;9.60;1.00;;;;;;5110419;28;20708;-74
2022/02/04 13:21:14;;;;;;;1.10;1.00;;;9.60;99.90;;;;;;5105432;28;20201;-73
2022/02/04 13:23:42;;;;;;;1.10;1.00;;;9.60;1.00;;;;;;5107715;28;20217;-74
2022/02/04 13:26:09;;;;;;;2.40;0.87;;;9.50;1.00;;;;;;5102382;28;20205;-73
2022/02/04 13:28:38;;;;;;;3.63;1.27;;;9.50;1.00;;;;;;5106289;28;20197;-73
2022/02/04 13:31:07;;;;;;;6.77;4.17;;;9.50;1.00;;;;;;5106297;28;20208;-73
2022/02/04 13:33:42;;;;;;;1.30;1.20;;;9.50;99.90;;;;;;5109001;28;20713;-73
2022/02/04 13:36:22;;;;;;;1.83;1.17;;;9.40;99.90;;;;;;5107196;28;20204;-73
2022/02/04 13:38:57;;;;;;;1.47;1.17;;;9.30;99.90;;;;;;5112055;28;20208;-73
2022/02/04 13:41:36;;;;;;;1.10;1.10;;;9.20;99.90;;;;;;5110293;28;20607;-73
2022/02/04 13:47:11;;;;;;;0.70;0.70;;;9.20;47.00;;;;;;5108008;28;20201;-73
2022/02/04 13:49:59;;;;;;;1.03;0.80;;;9.20;99.90;;;;;;5099692;28;20204;-74
2022/02/04 13:52:51;;;;;;;0.60;0.60;;;9.20;80.70;;;;;;5108320;28;20216;-74
2022/02/04 13:55:28;;;;;;;0.60;0.60;;;9.20;99.90;;;;;;5109263;28;20199;-74
2022/02/04 13:58:11;;;;;;;1.67;0.80;;;9.20;99.90;;;;;;5104242;28;20224;-74
2022/02/04 14:00:51;;;;;;;0.93;0.83;;;9.20;1.00;;;;;;5107534;28;20609;-73
2022/02/04 14:03:21;;;;;;;0.70;0.70;;;9.20;1.00;;;;;;5112180;28;20193;-73
2022/02/04 14:05:54;;;;;;;0.70;0.70;;;9.10;1.00;;;;;;5104892;28;20904;-74
2022/02/04 14:08:32;;;;;;;1.40;0.90;;;9.10;1.00;;;;;;5102907;28;20424;-73
2022/02/04 14:11:05;;;;;;;0.90;0.90;;;9.10;99.90;;;;;;5085661;28;20202;-73
2022/02/04 14:13:33;;;;;;;1.07;0.97;;;9.20;1.00;;;;;;5106675;28;20209;-73
2022/02/04 14:16:05;;;;;;;1.73;0.80;;;9.20;1.00;;;;;;5104911;28;20208;-73
2022/02/04 14:18:33;;;;;;;0.97;0.77;;;9.30;99.90;;;;;;5099688;28;20621;-74
2022/02/04 14:21:01;;;;;;;0.90;0.80;;;9.30;99.90;;;;;;5105260;28;20205;-73
2022/02/04 14:23:29;;;;;;;1.20;0.70;;;9.30;35.00;;;;;;5100796;28;20197;-74
2022/02/04 14:26:01;;;;;;;0.53;0.53;;;9.30;99.90;;;;;;5100378;28;20201;-73
2022/02/04 14:28:37;;;;;;;0.83;0.83;;;9.30;1.00;;;;;;5101196;28;20266;-73
2022/02/04 14:31:11;;;;;;;0.70;0.70;;;9.30;99.90;;;;;;5103281;28;20200;-73
2022/02/04 14:36:32;;;;;;;0.73;0.73;;;9.20;99.90;;;;;;5102849;28;20552;-74
2022/02/04 14:50:29;;;;;;;1.20;1.10;;;8.80;62.10;;;;;;5101387;28;20258;-74
2022/02/04 14:53:04;;;;;;;1.13;0.90;;;8.70;1.00;;;;;;5099201;28;20212;-74
2022/02/04 14:58:46;;;;;;;1.63;1.53;;;8.60;10.90;;;;;;5098583;28;20212;-74
2022/02/04 15:01:19;;;;;;;2.13;1.47;;;8.60;1.00;;;;;;5098999;28;20220;-73
2022/02/04 15:03:55;;;;;;;1.27;1.17;;;8.70;99.90;;;;;;5101021;28;20229;-73
2022/02/04 15:06:28;;;;;;;1.40;1.30;;;8.80;1.00;;;;;;5099246;28;20630;-73
2022/02/04 15:08:56;;;;;;;1.93;1.33;;;8.80;1.00;;;;;;5104810;28;20585;-74
2022/02/04 15:11:30;;;;;;;1.60;1.47;;;8.80;1.00;;;;;;5097568;28;20209;-74
2022/02/04 15:13:58;;;;;;;2.10;1.70;;;8.70;1.00;;;;;;5098608;28;20209;-74
2022/02/04 15:16:26;;;;;;;1.30;1.20;;;8.70;1.00;;;;;;5098513;28;20594;-74
2022/02/04 15:18:54;;;;;;;2.23;1.40;;;8.70;58.70;;;;;;5099583;28;20197;-74
2022/02/04 15:21:23;;;;;;;1.87;1.47;;;8.60;99.90;;;;;;5103068;27;20286;-74
2022/02/04 15:23:52;;;;;;;1.53;1.43;;;8.60;99.90;;;;;;5099187;28;20223;-73
2022/02/04 15:26:23;;;;;;;1.80;1.30;;;8.60;1.00;;;;;;5099430;28;20205;-74
2022/02/04 15:28:57;;;;;;;1.40;1.30;;;8.50;1.00;;;;;;5102257;28;20217;-74
2022/02/04 15:31:32;;;;;;;1.17;1.07;;;8.50;1.00;;;;;;5101882;28;20209;-73
2022/02/04 15:34:00;;;;;;;1.50;1.40;;;8.50;1.00;;;;;;5102349;28;20201;-74
2022/02/04 15:36:30;;;;;;;1.63;0.93;;;8.50;1.00;;;;;;5100446;28;20655;-73
2022/02/04 15:38:58;;;;;;;1.80;0.93;;;8.50;1.00;;;;;;5096993;28;20213;-73
2022/02/04 15:41:27;;;;;;;1.30;1.20;;;8.40;99.90;;;;;;5098070;28;20307;-73
2022/02/04 15:43:57;;;;;;;1.20;1.10;;;8.30;1.00;;;;;;5096281;28;20889;-74
2022/02/04 15:52:36;;;;;;;1.20;1.07;;;8.10;99.90;;;;;;5072462;28;20561;-73
2022/02/04 15:55:07;;;;;;;1.47;1.10;;;8.00;1.00;;;;;;5108082;28;20201;-73
2022/02/04 15:57:43;;;;;;;1.03;0.80;;;7.90;1.00;;;;;;5107286;28;20197;-74
2022/02/04 16:03:29;;;;;;;1.07;0.97;;;7.90;99.90;;;;;;5105002;28;20201;-74
2022/02/04 16:05:56;;;;;;;1.43;1.03;;;7.80;1.00;;;;;;5107014;28;20689;-73
2022/02/04 16:08:23;;;;;;;0.93;0.93;;;7.90;1.00;;;;;;5108575;28;20651;-73
2022/02/04 16:10:54;;;;;;;3.23;1.00;;;8.00;99.90;;;;;;5098936;28;20343;-73
2022/02/04 16:13:41;;;;;;;0.70;0.70;;;8.00;99.90;;;;;;5108314;28;20574;-73
2022/02/04 16:16:23;;;;;;;1.50;1.40;;;7.90;73.70;;;;;;5108235;28;20201;-73
2022/02/04 16:19:05;;;;;;;1.33;1.03;;;8.00;1.00;;;;;;5114639;28;20274;-73
2022/02/04 16:21:41;;;;;;;1.80;1.50;;;8.10;99.90;;;;;;5101500;28;20648;-73
2022/02/04 16:24:34;;;;;;;1.57;1.13;;;8.10;1.00;;;;;;5093737;28;20765;-73
2022/02/04 16:28:37;;;;;;;1.50;1.40;;;8.10;1.00;;;;;;5112849;28;20207;-73
2022/02/04 16:29:57;;;;;;;1.83;1.43;;;8.20;1.00;;;;;;5104705;28;20204;-73
2022/02/04 16:32:26;;;;;;;2.27;1.60;;;8.10;1.00;;;;;;5114525;28;20197;-73
2022/02/04 16:34:55;;;;;;;2.47;1.47;;;8.10;1.00;;;;;;5109445;28;20204;-74
2022/02/04 16:37:30;;;;;;;3.87;1.40;;;8.10;1.00;;;;;;5113288;28;20217;-74
2022/02/04 16:39:58;;;;;;;1.43;1.27;;;8.20;99.90;;;;;;5110284;28;20675;-74
2022/02/04 16:42:27;;;;;;;2.07;1.40;;;8.30;8.50;;;;;;5108610;28;20201;-74
2022/02/04 16:44:54;;;;;;;2.60;1.40;;;8.30;99.90;;;;;;5111455;28;20275;-74
2022/02/04 16:47:21;;;;;;;1.50;0.90;;;8.30;1.00;;;;;;5112783;28;20659;-74
2022/02/04 16:49:50;;;;;;;2.70;1.20;;;8.30;1.00;;;;;;5113226;28;20486;-73
2022/02/04 16:52:17;;;;;;;2.93;1.00;;;8.30;1.00;;;;;;5113973;28;20572;-74
2022/02/04 16:54:44;;;;;;;1.93;0.80;;;8.40;1.00;;;;;;5111782;28;20211;-74
2022/02/04 16:57:11;;;;;;;2.60;0.90;;;8.30;1.00;;;;;;5106719;28;20201;-73
2022/02/04 16:59:38;;;;;;;1.73;1.07;;;8.30;1.00;;;;;;5111374;28;20196;-73
2022/02/04 17:02:06;;;;;;;1.57;0.90;;;8.30;1.00;;;;;;5107373;28;20205;-74
2022/02/04 17:04:34;;;;;;;3.90;1.07;;;8.30;1.00;;;;;;5110990;28;20678;-73
2022/02/04 17:07:05;;;;;;;1.13;1.00;;;8.30;99.90;;;;;;5106795;28;20647;-73
2022/02/04 17:09:36;;;;;;;1.90;1.30;;;8.20;99.90;;;;;;5112907;28;20695;-73
2022/02/04 17:12:06;;;;;;;3.57;1.20;;;8.20;99.90;;;;;;5108892;28;20205;-73
2022/02/04 17:14:35;;;;;;;3.43;1.60;;;8.20;99.90;;;;;;5109977;28;20331;-74
2022/02/04 17:17:04;;;;;;;2.23;1.10;;;8.20;99.90;;;;;;5110848;28;20201;-73
2022/02/04 17:19:37;;;;;;;1.70;1.00;;;8.30;99.90;;;;;;5108024;28;20414;-73
2022/02/04 17:22:07;;;;;;;2.43;0.80;;;8.20;99.90;;;;;;5112500;28;20197;-73
2022/02/04 17:24:35;;;;;;;2.73;1.20;;;8.20;1.00;;;;;;5106906;28;20815;-73
2022/02/04 17:27:02;;;;;;;2.33;1.13;;;8.20;1.00;;;;;;5109491;28;20201;-73
2022/02/04 17:29:30;;;;;;;1.07;0.97;;;8.10;99.90;;;;;;5112309;28;20200;-73
2022/02/04 17:31:57;;;;;;;1.33;1.00;;;8.10;1.00;;;;;;5109111;28;20200;-73
2022/02/04 17:34:24;;;;;;;1.33;0.90;;;8.00;99.90;;;;;;5104520;28;20246;-73
2022/02/04 17:36:52;;;;;;;2.30;1.10;;;8.00;99.90;;;;;;5108122;28;20239;-74
2022/02/04 17:39:22;;;;;;;1.23;0.73;;;7.90;1.00;;;;;;5106006;28;20201;-73
2022/02/04 17:41:51;;;;;;;3.40;1.10;;;7.90;1.00;;;;;;5102597;28;20201;-73